Time;durP1;ratioP1;P1;durP2;ratioP2;P2;SDS_P1;SDS_P2;PMS_P1;PMS_P2;Temp;Humidity;BMP_temperature;BMP_pressure;BME280_temperature;BME280_humidity;BME280_pressure;Samples;Min_cycle;Max_cycle;Signal;HPM_P1;HPM_P2
2023/07/06 00:01:27;;;;;;;6.97;3.37;;;16.60;15.90;;;;;;5030226;28;20482;-68
2023/07/06 00:03:56;;;;;;;6.73;2.87;;;16.60;16.40;;;;;;5024102;28;20518;-68
2023/07/06 00:06:23;;;;;;;7.40;3.10;;;16.60;17.00;;;;;;5029600;28;20463;-67
2023/07/06 00:08:52;;;;;;;7.17;3.40;;;16.50;17.40;;;;;;5031685;28;20466;-67
2023/07/06 00:11:21;;;;;;;6.10;2.93;;;16.50;17.60;;;;;;5030108;28;20498;-67
2023/07/06 00:13:47;;;;;;;5.67;2.67;;;16.50;17.60;;;;;;5028076;28;20518;-67
2023/07/06 00:16:15;;;;;;;6.30;2.77;;;16.50;16.80;;;;;;5028430;28;20512;-67
2023/07/06 00:18:42;;;;;;;5.90;2.70;;;16.50;16.50;;;;;;5031146;28;20460;-68
2023/07/06 00:21:08;;;;;;;6.30;2.87;;;16.50;16.40;;;;;;5028475;28;20553;-67
2023/07/06 00:23:35;;;;;;;6.40;2.70;;;16.50;16.40;;;;;;5028561;28;20479;-68
2023/07/06 00:26:02;;;;;;;6.00;2.33;;;16.50;16.50;;;;;;5029542;28;20985;-67
2023/07/06 00:28:30;;;;;;;6.60;2.70;;;16.40;16.30;;;;;;5030639;28;20831;-67
2023/07/06 00:31:02;;;;;;;5.70;2.37;;;16.40;16.50;;;;;;5025564;28;20504;-67
2023/07/06 00:33:30;;;;;;;7.80;3.43;;;16.40;16.90;;;;;;5029711;28;20573;-67
2023/07/06 00:35:56;;;;;;;6.70;3.07;;;16.30;17.60;;;;;;5028867;28;20474;-67
2023/07/06 00:38:25;;;;;;;10.10;3.57;;;16.20;18.40;;;;;;5029066;28;20490;-68
2023/07/06 00:40:55;;;;;;;7.37;3.07;;;16.10;18.70;;;;;;5028698;28;20467;-67
2023/07/06 00:43:25;;;;;;;6.57;2.70;;;16.10;19.20;;;;;;5028483;28;20478;-67
2023/07/06 00:45:56;;;;;;;6.43;2.40;;;16.00;19.80;;;;;;5025641;28;20476;-67
2023/07/06 00:48:28;;;;;;;7.90;3.13;;;15.80;20.60;;;;;;5026179;28;20456;-67
2023/07/06 00:51:02;;;;;;;7.70;3.10;;;15.80;20.70;;;;;;5024358;28;20474;-67
2023/07/06 00:53:34;;;;;;;8.63;3.33;;;15.60;20.80;;;;;;5030126;28;20528;-67
2023/07/06 00:56:02;;;;;;;7.77;2.90;;;15.60;21.00;;;;;;5026157;28;20466;-67
2023/07/06 00:58:33;;;;;;;7.43;3.60;;;15.50;21.30;;;;;;5022031;28;20479;-67
2023/07/06 01:01:06;;;;;;;10.87;3.70;;;15.40;21.70;;;;;;5026410;28;20467;-67
2023/07/06 01:03:43;;;;;;;8.40;3.43;;;15.20;22.20;;;;;;5025805;28;20537;-67
2023/07/06 01:06:16;;;;;;;11.63;3.43;;;15.10;22.80;;;;;;5024663;28;20466;-67
2023/07/06 01:08:43;;;;;;;7.00;3.13;;;15.00;24.00;;;;;;5026666;28;20955;-67
2023/07/06 01:11:10;;;;;;;13.30;3.63;;;14.90;24.00;;;;;;5028930;28;20817;-67
2023/07/06 01:13:37;;;;;;;9.93;4.00;;;14.80;24.30;;;;;;5021688;28;20521;-67
2023/07/06 01:16:14;;;;;;;6.60;3.20;;;14.70;24.60;;;;;;5027682;28;20471;-67
2023/07/06 01:18:51;;;;;;;8.10;3.20;;;14.70;25.00;;;;;;5027134;28;20505;-67
2023/07/06 01:21:21;;;;;;;6.43;2.87;;;14.60;25.50;;;;;;5026775;28;20467;-67
2023/07/06 01:24:17;;;;;;;7.43;3.87;;;14.60;25.60;;;;;;5026566;28;20483;-67
2023/07/06 01:27:11;;;;;;;8.70;3.83;;;14.60;26.20;;;;;;5025373;28;20826;-67
2023/07/06 01:30:00;;;;;;;7.40;3.50;;;14.60;26.60;;;;;;5027789;28;20914;-67
2023/07/06 01:32:32;;;;;;;8.27;3.70;;;14.60;27.20;;;;;;5025951;28;20493;-68
2023/07/06 01:35:03;;;;;;;7.17;3.47;;;14.50;27.70;;;;;;5025232;28;20536;-67
2023/07/06 01:37:34;;;;;;;6.43;3.10;;;14.50;28.60;;;;;;5027987;28;20509;-67
2023/07/06 01:40:03;;;;;;;7.00;3.73;;;14.50;28.80;;;;;;5025351;28;20463;-67
2023/07/06 01:42:32;;;;;;;6.43;2.97;;;14.40;28.70;;;;;;5024543;28;20467;-67
2023/07/06 01:45:06;;;;;;;6.93;3.70;;;14.40;29.20;;;;;;5024188;28;20506;-67
2023/07/06 01:47:37;;;;;;;7.97;3.50;;;14.40;29.80;;;;;;5023474;28;20466;-68
2023/07/06 01:50:09;;;;;;;9.30;3.97;;;14.40;30.00;;;;;;5023588;28;20459;-67
2023/07/06 01:52:56;;;;;;;11.00;4.10;;;14.40;30.10;;;;;;5028624;28;20469;-67
2023/07/06 01:55:28;;;;;;;9.80;3.73;;;14.30;30.40;;;;;;5026777;28;20963;-67
2023/07/06 01:58:04;;;;;;;7.80;4.27;;;14.30;30.40;;;;;;5024111;28;20490;-67
2023/07/06 02:00:32;;;;;;;7.60;3.77;;;14.30;30.50;;;;;;5026139;28;20483;-67
2023/07/06 02:03:01;;;;;;;10.20;4.20;;;14.20;30.70;;;;;;5027688;28;20467;-67
2023/07/06 02:05:28;;;;;;;8.90;4.37;;;14.30;30.90;;;;;;5025874;28;20463;-67
2023/07/06 02:07:56;;;;;;;7.50;3.80;;;14.20;30.90;;;;;;5027041;28;20459;-67
2023/07/06 02:10:23;;;;;;;8.87;4.57;;;14.20;31.00;;;;;;5025121;28;20463;-68
2023/07/06 02:12:49;;;;;;;9.37;4.10;;;14.20;30.90;;;;;;5027076;28;20494;-67
2023/07/06 02:15:18;;;;;;;8.70;3.90;;;14.30;30.90;;;;;;5026566;28;20467;-68
2023/07/06 02:17:46;;;;;;;8.43;4.50;;;14.20;31.30;;;;;;5027940;28;20514;-67
2023/07/06 02:20:16;;;;;;;9.90;5.07;;;14.30;30.70;;;;;;5029018;28;20474;-67
2023/07/06 02:22:43;;;;;;;9.53;4.80;;;14.20;30.80;;;;;;5025945;28;20475;-67
2023/07/06 02:25:10;;;;;;;9.80;4.40;;;14.20;30.70;;;;;;5028395;28;20474;-67
2023/07/06 02:27:37;;;;;;;7.37;4.33;;;14.20;30.60;;;;;;5028735;28;20463;-67
2023/07/06 02:30:05;;;;;;;8.97;4.70;;;14.20;30.30;;;;;;5025690;28;20490;-67
2023/07/06 02:32:32;;;;;;;9.20;3.73;;;14.20;30.40;;;;;;5026622;28;20482;-67
2023/07/06 02:34:59;;;;;;;11.70;5.43;;;14.20;29.90;;;;;;5026017;28;20479;-67
2023/07/06 02:37:28;;;;;;;10.20;4.70;;;14.20;30.80;;;;;;5028189;28;20497;-67
2023/07/06 02:39:58;;;;;;;9.23;4.20;;;14.20;30.50;;;;;;5026332;28;20959;-67
2023/07/06 02:42:25;;;;;;;7.73;4.47;;;14.20;30.50;;;;;;5026983;28;20534;-68
2023/07/06 02:44:52;;;;;;;8.27;5.23;;;14.20;30.40;;;;;;5028379;28;20490;-67
2023/07/06 02:47:21;;;;;;;9.93;5.93;;;14.20;30.30;;;;;;5024061;28;20994;-67
2023/07/06 02:49:48;;;;;;;9.60;5.70;;;14.20;30.30;;;;;;5022249;28;20488;-67
2023/07/06 02:52:15;;;;;;;9.77;5.37;;;14.20;30.00;;;;;;5027009;28;20470;-67
2023/07/06 02:54:43;;;;;;;8.60;5.27;;;14.20;29.90;;;;;;5027728;28;20568;-67
2023/07/06 02:57:10;;;;;;;8.80;5.50;;;14.20;29.80;;;;;;5027636;28;20831;-67
2023/07/06 02:59:37;;;;;;;12.50;6.50;;;14.20;30.20;;;;;;5028128;28;20466;-67
2023/07/06 03:02:04;;;;;;;8.70;4.80;;;14.10;30.10;;;;;;5027371;28;20494;-67
2023/07/06 03:04:31;;;;;;;11.10;5.70;;;14.10;30.20;;;;;;5026173;28;20987;-67
2023/07/06 03:06:58;;;;;;;9.43;5.20;;;14.10;30.30;;;;;;5028368;28;20451;-67
2023/07/06 03:09:26;;;;;;;6.87;4.43;;;14.10;30.00;;;;;;5026093;28;20902;-67
2023/07/06 03:11:54;;;;;;;9.53;4.40;;;14.10;30.00;;;;;;5025013;28;20459;-67
2023/07/06 03:14:25;;;;;;;7.57;3.63;;;14.00;30.10;;;;;;5024254;28;20487;-67
2023/07/06 03:16:54;;;;;;;8.80;4.03;;;14.00;30.00;;;;;;5018389;28;20468;-67
2023/07/06 03:19:21;;;;;;;10.33;4.90;;;13.90;29.80;;;;;;5024557;28;20518;-67
2023/07/06 03:21:49;;;;;;;11.23;4.40;;;13.90;29.60;;;;;;5023772;28;20454;-67
2023/07/06 03:24:16;;;;;;;8.17;3.93;;;13.90;29.80;;;;;;5023578;28;20486;-67
2023/07/06 03:26:44;;;;;;;8.97;4.00;;;13.80;30.10;;;;;;5026045;28;21083;-67
2023/07/06 03:29:13;;;;;;;12.43;4.77;;;13.70;30.30;;;;;;5019032;28;20498;-67
2023/07/06 03:31:40;;;;;;;17.33;4.37;;;13.70;30.60;;;;;;5019786;28;20487;-67
2023/07/06 03:34:08;;;;;;;9.70;4.83;;;13.60;31.20;;;;;;5019816;28;20861;-67
2023/07/06 03:36:37;;;;;;;10.83;4.30;;;13.60;31.70;;;;;;5026276;28;20470;-67
2023/07/06 03:39:05;;;;;;;9.30;4.50;;;13.50;31.90;;;;;;5021739;28;20759;-68
2023/07/06 03:41:32;;;;;;;8.00;4.33;;;13.50;31.90;;;;;;5026280;28;20550;-67
2023/07/06 03:43:59;;;;;;;8.77;4.50;;;13.50;32.10;;;;;;5021622;28;20493;-67
2023/07/06 03:46:31;;;;;;;8.00;5.00;;;13.50;32.30;;;;;;5022822;28;20463;-70
2023/07/06 03:48:58;;;;;;;9.83;4.50;;;13.50;32.50;;;;;;5025318;28;20459;-69
2023/07/06 03:51:24;;;;;;;13.10;4.73;;;13.50;33.00;;;;;;5023193;28;20471;-67
2023/07/06 03:53:51;;;;;;;10.20;5.13;;;13.50;33.60;;;;;;5022190;28;20926;-67
2023/07/06 03:56:25;;;;;;;9.73;4.60;;;13.60;33.00;;;;;;5021675;28;20467;-67
2023/07/06 03:58:51;;;;;;;9.73;4.97;;;13.60;32.70;;;;;;5030427;28;20489;-67
2023/07/06 04:01:18;;;;;;;9.90;4.87;;;13.70;32.70;;;;;;5027868;28;20473;-67
2023/07/06 04:03:46;;;;;;;10.97;4.97;;;13.70;32.70;;;;;;5027871;28;20997;-67
2023/07/06 04:06:13;;;;;;;9.20;4.73;;;13.80;32.80;;;;;;5028529;28;20458;-67
2023/07/06 04:08:40;;;;;;;8.17;4.43;;;13.80;32.80;;;;;;5028530;28;20455;-66
2023/07/06 04:11:07;;;;;;;15.33;5.40;;;13.80;32.70;;;;;;5027246;28;20470;-66
2023/07/06 04:13:34;;;;;;;9.30;4.50;;;13.90;32.10;;;;;;5024824;28;20494;-66
2023/07/06 04:16:01;;;;;;;11.20;4.73;;;14.00;32.00;;;;;;5027589;28;20463;-66
2023/07/06 04:18:27;;;;;;;7.83;3.83;;;14.10;31.80;;;;;;5025623;28;20475;-66
2023/07/06 04:20:55;;;;;;;9.40;4.93;;;14.10;31.60;;;;;;5031865;28;20480;-67
2023/07/06 04:23:22;;;;;;;13.13;4.83;;;14.20;31.50;;;;;;5034076;28;20483;-66
2023/07/06 04:25:49;;;;;;;13.00;5.40;;;14.20;31.10;;;;;;5035596;28;20463;-66
2023/07/06 04:28:16;;;;;;;11.30;5.03;;;14.30;30.90;;;;;;5032467;28;21196;-66
2023/07/06 04:30:44;;;;;;;8.50;4.23;;;14.40;30.60;;;;;;5029398;28;20479;-67
2023/07/06 04:33:15;;;;;;;10.57;5.60;;;14.50;30.20;;;;;;5041575;23;20479;-67
2023/07/06 04:35:42;;;;;;;11.00;4.17;;;14.60;30.10;;;;;;5065142;28;20949;-67
2023/07/06 04:38:11;;;;;;;9.90;4.83;;;15.30;30.70;;;;;;5066135;28;20487;-67
2023/07/06 04:40:42;;;;;;;12.37;4.73;;;16.40;26.80;;;;;;5066553;28;20465;-67
2023/07/06 04:43:11;;;;;;;10.97;4.50;;;17.60;22.50;;;;;;5062101;28;20568;-67
2023/07/06 04:45:37;;;;;;;13.33;4.77;;;18.70;18.80;;;;;;5073281;28;20845;-67
2023/07/06 04:48:05;;;;;;;9.23;4.07;;;19.70;16.30;;;;;;5072623;28;20510;-67
2023/07/06 04:50:32;;;;;;;8.57;4.37;;;20.60;14.30;;;;;;5074783;28;20870;-67
2023/07/06 04:53:02;;;;;;;9.10;3.83;;;21.30;12.60;;;;;;5071571;28;20461;-69
2023/07/06 04:55:31;;;;;;;11.43;4.37;;;22.00;10.90;;;;;;5073089;28;20460;-66
2023/07/06 04:58:00;;;;;;;9.30;4.00;;;22.30;10.10;;;;;;5070520;28;20476;-66
2023/07/06 05:00:29;;;;;;;10.10;4.57;;;21.90;10.50;;;;;;5065926;28;20950;-66
2023/07/06 05:03:00;;;;;;;8.70;4.07;;;21.60;11.80;;;;;;5068801;28;20501;-66
2023/07/06 05:05:28;;;;;;;10.00;4.03;;;22.40;10.90;;;;;;5065925;28;20820;-66
2023/07/06 05:07:56;;;;;;;8.90;3.90;;;23.40;9.00;;;;;;5069334;28;21855;-67
2023/07/06 05:10:23;;;;;;;6.90;3.77;;;24.20;7.10;;;;;;5064534;28;20456;-66
2023/07/06 05:12:51;;;;;;;13.23;4.90;;;24.70;5.90;;;;;;5068619;28;20453;-66
2023/07/06 05:15:19;;;;;;;8.20;4.00;;;25.60;4.20;;;;;;5070298;28;20543;-66
2023/07/06 05:17:45;;;;;;;9.00;4.77;;;26.40;2.70;;;;;;5066549;28;20469;-66
2023/07/06 05:20:14;;;;;;;9.07;4.20;;;27.10;1.40;;;;;;5068056;28;20477;-66
2023/07/06 05:22:42;;;;;;;8.70;4.40;;;27.70;1.00;;;;;;5071288;28;20460;-66
2023/07/06 05:25:10;;;;;;;7.30;4.10;;;28.30;1.00;;;;;;5068181;28;20489;-66
2023/07/06 05:27:37;;;;;;;10.33;5.07;;;28.90;1.00;;;;;;5070072;28;20460;-67
2023/07/06 05:30:07;;;;;;;8.60;5.00;;;29.40;1.00;;;;;;5069586;28;20454;-67
2023/07/06 05:32:33;;;;;;;7.27;4.37;;;29.90;1.00;;;;;;5070797;28;21036;-66
2023/07/06 05:35:00;;;;;;;9.53;4.03;;;30.40;1.00;;;;;;5067973;28;20481;-67
2023/07/06 05:37:27;;;;;;;7.90;3.30;;;31.00;1.00;;;;;;5076111;28;20453;-66
2023/07/06 05:39:54;;;;;;;10.07;4.40;;;31.50;1.00;;;;;;5070720;28;20845;-67
2023/07/06 05:42:21;;;;;;;7.70;3.60;;;31.90;1.00;;;;;;5074602;28;20457;-66
2023/07/06 05:44:48;;;;;;;6.00;3.40;;;32.20;1.00;;;;;;5071678;28;20481;-66
2023/07/06 05:47:16;;;;;;;7.77;3.70;;;32.80;1.00;;;;;;5068875;28;20466;-66
2023/07/06 05:49:42;;;;;;;8.40;4.37;;;33.30;1.00;;;;;;5070986;28;20464;-66
2023/07/06 05:52:09;;;;;;;7.73;4.10;;;33.80;1.00;;;;;;5066158;28;20453;-66
2023/07/06 05:54:36;;;;;;;9.20;5.07;;;34.20;1.00;;;;;;5069112;28;20484;-66
2023/07/06 05:57:03;;;;;;;7.93;4.37;;;34.50;1.00;;;;;;5070261;28;20457;-66
2023/07/06 05:59:30;;;;;;;10.40;4.53;;;34.90;1.00;;;;;;5073220;28;20896;-66
2023/07/06 06:01:58;;;;;;;7.73;4.97;;;35.40;1.00;;;;;;5065126;28;21012;-67
2023/07/06 06:04:26;;;;;;;11.47;5.27;;;35.90;1.00;;;;;;5070730;28;20535;-67
2023/07/06 06:06:55;;;;;;;8.77;4.73;;;36.50;1.00;;;;;;5068683;28;20460;-67
2023/07/06 06:09:24;;;;;;;8.90;4.60;;;36.90;1.00;;;;;;5066403;28;20483;-67
2023/07/06 06:11:50;;;;;;;7.13;4.20;;;37.30;1.00;;;;;;5067702;28;20484;-66
2023/07/06 06:14:18;;;;;;;7.30;4.90;;;37.30;1.00;;;;;;5069006;28;20481;-67
2023/07/06 06:16:45;;;;;;;9.83;4.40;;;37.60;1.00;;;;;;5069492;28;20468;-67
2023/07/06 06:19:12;;;;;;;7.30;4.67;;;38.20;1.00;;;;;;5069505;28;20473;-67
2023/07/06 06:21:40;;;;;;;7.37;4.40;;;38.70;1.00;;;;;;5069002;28;21188;-66
2023/07/06 06:24:08;;;;;;;7.53;5.03;;;39.10;1.00;;;;;;5067644;28;20498;-67
2023/07/06 06:26:35;;;;;;;8.23;4.90;;;39.50;1.00;;;;;;5066044;28;20457;-67
2023/07/06 06:29:02;;;;;;;7.20;5.00;;;39.90;1.00;;;;;;5069204;28;20457;-67
2023/07/06 06:31:29;;;;;;;9.40;5.90;;;40.60;1.00;;;;;;5069059;28;20480;-67
2023/07/06 06:33:55;;;;;;;12.93;5.57;;;40.90;1.00;;;;;;5068119;28;20480;-67
2023/07/06 06:36:22;;;;;;;7.70;5.20;;;41.40;1.00;;;;;;5070789;28;20464;-67
2023/07/06 06:38:50;;;;;;;8.07;5.13;;;41.90;1.00;;;;;;5067876;28;20587;-67
2023/07/06 06:41:18;;;;;;;8.27;5.40;;;42.50;1.00;;;;;;5069002;28;20465;-67
2023/07/06 06:43:45;;;;;;;8.80;6.90;;;42.50;1.00;;;;;;5064879;28;20538;-67
2023/07/06 06:46:13;;;;;;;8.80;6.63;;;42.80;1.00;;;;;;5067664;28;20461;-67
2023/07/06 06:48:40;;;;;;;10.43;7.10;;;43.50;1.00;;;;;;5068534;28;20464;-66
2023/07/06 06:51:08;;;;;;;8.43;6.43;;;44.10;1.00;;;;;;5067852;28;20468;-66
2023/07/06 06:53:37;;;;;;;10.37;7.13;;;44.40;1.00;;;;;;5067676;28;20551;-67
2023/07/06 06:56:07;;;;;;;13.63;7.03;;;44.60;1.00;;;;;;5065243;28;20464;-67
2023/07/06 06:58:33;;;;;;;9.07;6.63;;;45.20;1.00;;;;;;5066746;28;20493;-67
2023/07/06 07:01:02;;;;;;;7.80;6.27;;;45.80;1.00;;;;;;5066846;28;20842;-67
2023/07/06 07:03:29;;;;;;;9.93;6.60;;;46.10;1.00;;;;;;5067794;28;20510;-67
2023/07/06 07:06:00;;;;;;;8.20;6.60;;;46.60;1.00;;;;;;5065937;28;20469;-66
2023/07/06 07:08:27;;;;;;;6.87;6.17;;;47.10;1.00;;;;;;5065914;28;20688;-66
2023/07/06 07:10:54;;;;;;;7.10;4.80;;;47.40;1.00;;;;;;5067923;28;20457;-68
2023/07/06 07:13:22;;;;;;;8.37;6.07;;;47.60;1.00;;;;;;5064825;28;20481;-68
2023/07/06 07:15:50;;;;;;;8.47;6.43;;;47.90;1.00;;;;;;5066751;28;20452;-68
2023/07/06 07:18:16;;;;;;;8.97;5.73;;;48.20;1.00;;;;;;5063845;28;20500;-68
2023/07/06 07:20:46;;;;;;;7.47;6.37;;;48.50;1.00;;;;;;5062116;28;20486;-68
2023/07/06 07:23:14;;;;;;;7.13;5.80;;;48.80;1.00;;;;;;5065228;28;20586;-68
2023/07/06 07:25:41;;;;;;;8.13;6.37;;;49.00;1.00;;;;;;5067489;28;20468;-67
2023/07/06 07:28:08;;;;;;;10.10;5.60;;;49.30;1.00;;;;;;5068022;28;20457;-68
2023/07/06 07:30:36;;;;;;;8.83;6.33;;;49.70;1.00;;;;;;5060119;28;20472;-67
2023/07/06 07:33:03;;;;;;;8.53;6.37;;;50.10;1.00;;;;;;5065497;28;20489;-67
2023/07/06 07:35:31;;;;;;;7.73;5.63;;;50.20;1.00;;;;;;5067178;28;20953;-67
2023/07/06 07:37:57;;;;;;;7.43;5.43;;;50.60;1.00;;;;;;5067930;28;20453;-69
2023/07/06 07:40:24;;;;;;;8.00;6.20;;;50.80;1.00;;;;;;5069144;28;20487;-67
2023/07/06 07:42:51;;;;;;;7.50;5.80;;;50.50;1.00;;;;;;5068025;28;20468;-68
2023/07/06 07:45:19;;;;;;;7.43;6.03;;;50.80;1.00;;;;;;5067683;28;20453;-67
2023/07/06 07:47:48;;;;;;;6.80;5.07;;;51.50;1.00;;;;;;5065486;28;20894;-67
2023/07/06 07:50:14;;;;;;;6.17;5.37;;;51.60;1.00;;;;;;5066976;28;20513;-67
2023/07/06 07:52:41;;;;;;;8.53;5.83;;;51.40;1.00;;;;;;5067275;28;20491;-67
2023/07/06 07:55:09;;;;;;;7.30;6.13;;;51.70;1.00;;;;;;5063352;28;20483;-67
2023/07/06 07:57:37;;;;;;;7.00;6.00;;;52.00;1.00;;;;;;5071400;28;20488;-67
2023/07/06 08:00:07;;;;;;;9.30;5.83;;;52.20;1.00;;;;;;5070980;28;20480;-67
2023/07/06 08:02:34;;;;;;;6.93;5.60;;;52.40;1.00;;;;;;5067664;28;20481;-67
2023/07/06 08:05:04;;;;;;;8.03;6.10;;;52.50;1.00;;;;;;5067098;28;20487;-67
2023/07/06 08:07:33;;;;;;;7.43;5.80;;;52.50;1.00;;;;;;5067927;28;20468;-67
2023/07/06 08:09:59;;;;;;;6.53;5.37;;;52.30;1.00;;;;;;5069530;28;20913;-67
2023/07/06 08:12:26;;;;;;;6.50;4.80;;;51.70;1.00;;;;;;5071202;28;20452;-67
2023/07/06 08:14:53;;;;;;;8.90;5.83;;;51.10;1.00;;;;;;5070835;28;20476;-68
2023/07/06 08:17:20;;;;;;;6.77;6.00;;;51.40;1.00;;;;;;5070637;28;20473;-67
2023/07/06 08:19:47;;;;;;;8.87;5.50;;;51.50;1.00;;;;;;5071207;28;20479;-67
2023/07/06 08:22:16;;;;;;;6.40;5.00;;;51.80;1.00;;;;;;5065197;28;20467;-67
2023/07/06 08:24:44;;;;;;;6.77;5.10;;;52.10;1.00;;;;;;5069946;28;20583;-67
2023/07/06 08:27:12;;;;;;;5.57;4.43;;;52.80;1.00;;;;;;5069961;28;20544;-67
2023/07/06 08:29:43;;;;;;;5.80;4.00;;;52.80;1.00;;;;;;5069473;28;20456;-67
2023/07/06 08:32:12;;;;;;;9.77;4.03;;;52.70;1.00;;;;;;5070165;28;20506;-67
2023/07/06 08:34:38;;;;;;;6.93;4.53;;;52.90;1.00;;;;;;5075816;28;20479;-68
2023/07/06 08:37:05;;;;;;;6.80;5.00;;;53.50;1.00;;;;;;5072750;28;20456;-67
2023/07/06 08:39:33;;;;;;;8.20;4.43;;;54.00;1.00;;;;;;5072494;28;20846;-67
2023/07/06 08:42:01;;;;;;;6.23;4.40;;;54.30;1.00;;;;;;5066886;28;20475;-67
2023/07/06 08:44:28;;;;;;;5.43;4.00;;;54.60;1.00;;;;;;5074203;28;20485;-67
2023/07/06 08:46:56;;;;;;;5.70;3.93;;;54.80;1.00;;;;;;5070677;28;21007;-68
2023/07/06 08:49:29;;;;;;;5.63;3.60;;;55.00;1.00;;;;;;5074806;28;20488;-67
2023/07/06 08:51:57;;;;;;;7.13;5.13;;;55.20;1.00;;;;;;5069924;28;20885;-67
2023/07/06 08:54:26;;;;;;;5.37;4.43;;;55.80;1.00;;;;;;5068874;28;20512;-68
2023/07/06 08:56:56;;;;;;;7.33;4.80;;;56.10;1.00;;;;;;5070470;28;20463;-68
2023/07/06 08:59:36;;;;;;;6.37;3.83;;;56.40;1.00;;;;;;5073183;28;20476;-67
2023/07/06 09:02:10;;;;;;;5.33;3.47;;;56.30;1.00;;;;;;5070804;28;20304;-67
2023/07/06 09:04:38;;;;;;;5.70;3.60;;;56.60;1.00;;;;;;5069766;28;20218;-68
2023/07/06 09:07:12;;;;;;;5.20;3.60;;;56.60;1.00;;;;;;5069451;28;20210;-68
2023/07/06 09:09:40;;;;;;;5.03;3.43;;;57.20;1.00;;;;;;5070911;28;20573;-67
2023/07/06 09:12:14;;;;;;;5.20;3.70;;;57.40;1.00;;;;;;5071784;28;20207;-67
2023/07/06 09:14:42;;;;;;;7.20;3.20;;;57.40;1.00;;;;;;5070463;28;20265;-67
2023/07/06 09:17:16;;;;;;;5.10;3.80;;;57.30;1.00;;;;;;5073977;28;20199;-67
2023/07/06 09:19:43;;;;;;;6.07;3.33;;;57.20;1.00;;;;;;5067661;28;20264;-67
2023/07/06 09:22:10;;;;;;;5.27;3.17;;;56.20;1.00;;;;;;5075777;28;20202;-67
2023/07/06 09:24:37;;;;;;;4.90;3.27;;;53.00;1.00;;;;;;5069870;28;20480;-67
2023/07/06 09:27:14;;;;;;;5.23;3.70;;;51.40;1.00;;;;;;5070531;28;20457;-67
2023/07/06 09:29:41;;;;;;;6.30;4.17;;;50.90;1.00;;;;;;5068665;28;20879;-67
2023/07/06 09:32:14;;;;;;;6.40;2.80;;;49.70;1.00;;;;;;5069148;28;21382;-67
2023/07/06 09:34:44;;;;;;;5.90;3.33;;;48.40;1.00;;;;;;5070378;28;21040;-67
2023/07/06 09:37:12;;;;;;;7.33;3.20;;;46.90;1.00;;;;;;5069943;28;20445;-67
2023/07/06 09:39:39;;;;;;;4.60;2.67;;;45.70;1.00;;;;;;5072748;28;20509;-67
2023/07/06 09:42:14;;;;;;;5.30;3.00;;;44.30;1.00;;;;;;5071860;28;20968;-67
2023/07/06 09:44:41;;;;;;;5.20;2.97;;;43.10;1.00;;;;;;5069430;28;20480;-67
2023/07/06 09:47:12;;;;;;;4.53;2.53;;;42.00;1.00;;;;;;5071779;28;21196;-67
2023/07/06 09:49:45;;;;;;;4.97;2.40;;;40.90;1.00;;;;;;5065564;28;20458;-66
2023/07/06 09:52:15;;;;;;;8.10;2.57;;;39.80;1.00;;;;;;5070507;28;20445;-66
2023/07/06 09:54:47;;;;;;;5.20;3.00;;;39.00;1.00;;;;;;5068932;28;20496;-66
2023/07/06 09:57:16;;;;;;;6.10;2.77;;;38.20;1.00;;;;;;5073154;28;20468;-66
2023/07/06 09:59:45;;;;;;;6.17;2.80;;;37.40;1.00;;;;;;5069906;28;20473;-66
2023/07/06 10:02:27;;;;;;;5.00;2.70;;;36.80;1.00;;;;;;5071876;28;20572;-66
2023/07/06 10:05:02;;;;;;;5.33;3.30;;;36.40;1.00;;;;;;5068752;28;20480;-66
2023/07/06 10:07:37;;;;;;;6.37;3.17;;;36.00;1.00;;;;;;5068638;28;20483;-66
2023/07/06 10:10:14;;;;;;;5.23;2.87;;;35.60;1.00;;;;;;5067327;28;20464;-67
2023/07/06 10:12:46;;;;;;;6.00;3.10;;;35.30;1.00;;;;;;5070896;28;20472;-67
2023/07/06 10:15:25;;;;;;;5.87;2.57;;;34.90;1.00;;;;;;5067213;28;20467;-67
2023/07/06 10:17:59;;;;;;;7.77;3.23;;;34.60;1.00;;;;;;5061591;28;20472;-67
2023/07/06 10:20:34;;;;;;;6.53;3.00;;;34.30;1.00;;;;;;5057342;28;20484;-67
2023/07/06 10:23:21;;;;;;;6.13;3.30;;;34.00;1.00;;;;;;5063407;28;20464;-67
2023/07/06 10:26:03;;;;;;;7.10;3.37;;;33.80;1.00;;;;;;5064125;28;20472;-64
2023/07/06 10:28:35;;;;;;;4.93;2.67;;;33.70;1.00;;;;;;5064746;28;20468;-64
2023/07/06 10:31:06;;;;;;;7.03;3.50;;;33.40;1.00;;;;;;5063174;28;20484;-64
2023/07/06 10:33:38;;;;;;;4.97;2.77;;;33.00;1.00;;;;;;5067131;28;20480;-64
2023/07/06 10:36:09;;;;;;;5.07;2.83;;;32.60;1.00;;;;;;5066071;28;20526;-63
2023/07/06 10:38:35;;;;;;;6.70;3.43;;;32.20;1.00;;;;;;5059419;28;20469;-63
2023/07/06 10:41:31;;;;;;;8.40;3.00;;;31.80;1.00;;;;;;5064630;28;20508;-64
2023/07/06 10:44:21;;;;;;;6.07;3.43;;;31.50;1.00;;;;;;5025477;28;20476;-64
2023/07/06 10:46:56;;;;;;;6.50;3.43;;;31.30;1.00;;;;;;5063857;28;20477;-65
2023/07/06 10:49:23;;;;;;;5.30;2.70;;;30.70;1.00;;;;;;5060592;28;20460;-65
2023/07/06 10:51:51;;;;;;;5.93;3.70;;;30.50;1.00;;;;;;5065060;28;21143;-64
2023/07/06 10:54:23;;;;;;;6.70;3.40;;;30.30;1.00;;;;;;5066818;28;20489;-64
2023/07/06 10:57:00;;;;;;;5.83;3.43;;;30.10;1.00;;;;;;5068062;28;20517;-64
2023/07/06 10:59:36;;;;;;;7.33;3.00;;;29.90;1.00;;;;;;5064920;28;20892;-64
2023/07/06 11:02:21;;;;;;;6.33;2.93;;;29.80;1.00;;;;;;5064237;28;21003;-64
2023/07/06 11:04:55;;;;;;;8.60;3.17;;;29.60;1.00;;;;;;5065683;28;20473;-64
2023/07/06 11:07:41;;;;;;;6.10;3.50;;;29.40;1.00;;;;;;5066966;28;20461;-66
2023/07/06 11:10:21;;;;;;;6.17;3.17;;;29.40;1.00;;;;;;5065213;28;20480;-66
2023/07/06 11:12:53;;;;;;;7.07;3.10;;;29.30;1.00;;;;;;5066697;28;20543;-66
2023/07/06 11:15:25;;;;;;;7.67;3.70;;;29.20;1.00;;;;;;5057348;28;20646;-66
2023/07/06 11:17:56;;;;;;;11.00;3.47;;;29.10;1.00;;;;;;5066309;28;20707;-65
2023/07/06 11:20:26;;;;;;;5.60;3.07;;;29.10;1.00;;;;;;5065311;28;20484;-63
2023/07/06 11:22:57;;;;;;;7.57;3.30;;;29.10;1.00;;;;;;5063241;28;20518;-63
2023/07/06 11:25:28;;;;;;;7.23;3.00;;;29.10;1.00;;;;;;5065188;28;20460;-63
2023/07/06 11:28:00;;;;;;;6.60;3.30;;;29.10;1.00;;;;;;5064995;28;20461;-63
2023/07/06 11:30:39;;;;;;;8.80;3.77;;;29.10;1.00;;;;;;5066516;28;20458;-63
2023/07/06 11:33:13;;;;;;;7.40;3.60;;;29.30;1.00;;;;;;5068153;28;20481;-63
2023/07/06 11:35:49;;;;;;;8.70;3.73;;;29.40;1.00;;;;;;5069034;28;21037;-63
2023/07/06 11:38:29;;;;;;;6.00;2.83;;;29.40;1.00;;;;;;5067988;28;21029;-64
2023/07/06 11:41:11;;;;;;;7.40;3.83;;;29.40;1.00;;;;;;5067211;28;20485;-63
2023/07/06 11:43:50;;;;;;;8.33;4.17;;;29.30;1.00;;;;;;5066589;28;20485;-63
2023/07/06 11:46:33;;;;;;;8.43;3.90;;;29.40;1.00;;;;;;5066435;28;20456;-63
2023/07/06 11:49:11;;;;;;;7.40;4.03;;;29.40;1.00;;;;;;5067237;28;20472;-63
2023/07/06 11:51:38;;;;;;;8.60;3.70;;;29.50;1.00;;;;;;5069165;28;20472;-63
2023/07/06 11:54:19;;;;;;;7.13;3.63;;;29.60;1.00;;;;;;5067078;28;20516;-65
2023/07/06 11:57:13;;;;;;;6.83;3.40;;;29.30;1.00;;;;;;5071362;28;20476;-65
2023/07/06 11:59:40;;;;;;;8.70;3.70;;;29.20;1.00;;;;;;5064823;28;20657;-65
2023/07/06 12:02:16;;;;;;;6.97;3.40;;;29.00;1.00;;;;;;5060403;28;20830;-65
2023/07/06 12:04:45;;;;;;;6.30;3.50;;;28.80;1.00;;;;;;5065778;28;20499;-65
2023/07/06 12:07:24;;;;;;;7.03;3.50;;;28.50;1.00;;;;;;5061899;28;21002;-65
2023/07/06 12:09:51;;;;;;;7.50;3.40;;;28.30;1.00;;;;;;5064553;28;20484;-65
2023/07/06 12:12:20;;;;;;;7.00;3.60;;;28.20;1.00;;;;;;5065952;28;20973;-64
2023/07/06 12:14:47;;;;;;;6.50;3.47;;;28.20;1.00;;;;;;5066779;28;20477;-64
2023/07/06 12:17:16;;;;;;;6.80;3.67;;;28.10;1.00;;;;;;5067191;28;20465;-65
2023/07/06 12:19:42;;;;;;;6.73;3.53;;;28.10;1.00;;;;;;5067026;28;20468;-66
2023/07/06 12:22:15;;;;;;;6.77;3.20;;;28.10;1.00;;;;;;5062005;28;20557;-65
2023/07/06 12:24:43;;;;;;;5.10;2.70;;;28.00;1.00;;;;;;5066790;28;20488;-65
2023/07/06 12:27:14;;;;;;;6.47;3.47;;;27.90;1.00;;;;;;5071828;28;20488;-65
2023/07/06 12:29:41;;;;;;;6.33;3.43;;;27.80;1.00;;;;;;5064506;28;21040;-66
2023/07/06 12:32:16;;;;;;;6.30;3.30;;;27.90;1.00;;;;;;5065572;28;20809;-66
2023/07/06 12:34:46;;;;;;;7.20;3.67;;;27.80;1.00;;;;;;5064783;28;20575;-66
2023/07/06 12:37:16;;;;;;;6.30;3.77;;;27.60;1.00;;;;;;5066664;28;20453;-65
2023/07/06 12:39:46;;;;;;;6.73;3.83;;;27.60;1.00;;;;;;5062754;28;20461;-65
2023/07/06 12:42:14;;;;;;;6.70;3.47;;;27.60;1.00;;;;;;5065522;28;20482;-65
2023/07/06 12:44:43;;;;;;;6.80;3.47;;;27.50;1.00;;;;;;5061314;28;20988;-65
2023/07/06 12:47:24;;;;;;;9.07;4.00;;;27.50;1.00;;;;;;5061616;28;20469;-65
2023/07/06 12:49:52;;;;;;;7.17;4.07;;;27.50;1.00;;;;;;5064990;28;20897;-65
2023/07/06 12:52:22;;;;;;;7.20;4.10;;;27.50;1.00;;;;;;5065520;28;20520;-65
2023/07/06 12:54:52;;;;;;;9.47;3.70;;;27.50;1.00;;;;;;5065818;28;20489;-65
2023/07/06 12:57:23;;;;;;;7.20;3.57;;;27.50;1.00;;;;;;5064067;28;20465;-65
2023/07/06 12:59:54;;;;;;;6.47;3.60;;;27.50;1.00;;;;;;5060020;28;20489;-65
2023/07/06 13:02:24;;;;;;;6.50;3.33;;;27.60;1.00;;;;;;5065262;28;20465;-65
2023/07/06 13:04:52;;;;;;;6.80;3.50;;;27.50;1.00;;;;;;5065911;28;20524;-65
2023/07/06 13:07:22;;;;;;;9.17;4.20;;;27.50;1.00;;;;;;5067488;28;20806;-65